createdAt,value
2022-10-14T00:00:26.833Z,70.19
2022-10-14T00:03:18.689Z,70.27
2022-10-14T00:05:50.934Z,70.26
2022-10-14T00:08:23.592Z,70.18
2022-10-14T00:10:55.920Z,70.33
2022-10-14T00:13:28.021Z,70.15
2022-10-14T00:16:00.874Z,69.86
2022-10-14T00:18:34.185Z,69.74
2022-10-14T00:21:06.839Z,69.64
2022-10-14T00:23:41.211Z,69.87
2022-10-14T00:26:19.791Z,70.22
2022-10-14T00:28:52.302Z,69.97
2022-10-14T00:31:25.590Z,69.88
2022-10-14T00:33:57.978Z,69.83
2022-10-14T00:36:30.773Z,69.82
2022-10-14T00:39:03.164Z,69.72
2022-10-14T00:41:37.406Z,69.75
2022-10-14T00:44:24.355Z,69.73
2022-10-14T00:46:57.480Z,69.82
2022-10-14T00:49:33.362Z,69.72
2022-10-14T00:52:09.122Z,69.52
2022-10-14T00:54:46.600Z,69.41
2022-10-14T00:57:19.561Z,69.09
2022-10-14T00:59:52.021Z,69.35
2022-10-14T01:02:24.228Z,69.29
2022-10-14T01:04:56.625Z,69.31
2022-10-14T01:07:38.329Z,69.96
2022-10-14T01:10:17.995Z,69.85
2022-10-14T01:13:02.916Z,70.03
2022-10-14T01:15:47.616Z,71.11
2022-10-14T01:18:37.497Z,70.22
2022-10-14T01:21:17.834Z,70.12
2022-10-14T01:24:23.989Z,69.94
2022-10-14T01:27:14.987Z,68.78
2022-10-14T01:30:12.217Z,69.16
2022-10-14T01:33:09.833Z,69.95
2022-10-14T01:36:00.658Z,70.80
2022-10-14T01:38:37.333Z,71.18
2022-10-14T01:41:15.278Z,71.58
2022-10-14T01:43:51.203Z,72.32
2022-10-14T01:46:27.253Z,72.87
2022-10-14T01:49:05.097Z,73.07
2022-10-14T01:51:45.183Z,73.12
2022-10-14T01:54:23.477Z,73.54
2022-10-14T01:56:58.281Z,74.00
2022-10-14T01:59:30.159Z,74.18
2022-10-14T02:02:02.290Z,74.24
2022-10-14T02:04:34.745Z,74.24
2022-10-14T02:07:12.180Z,74.23
2022-10-14T02:09:56.332Z,74.28
2022-10-14T02:12:43.398Z,74.61
2022-10-14T02:15:25.502Z,74.53
2022-10-14T02:18:06.050Z,74.70
2022-10-14T02:20:42.968Z,74.90
2022-10-14T02:23:20.393Z,74.82
2022-10-14T02:25:54.597Z,74.83
2022-10-14T02:28:30.961Z,74.82
2022-10-14T02:31:07.115Z,74.73
2022-10-14T02:33:43.941Z,74.38
2022-10-14T02:36:20.805Z,74.03
2022-10-14T02:38:54.565Z,74.13
2022-10-14T02:41:30.198Z,73.71
2022-10-14T02:44:02.686Z,73.34
2022-10-14T02:46:35.877Z,72.99
2022-10-14T02:49:08.147Z,73.25
2022-10-14T02:51:41.626Z,73.61
2022-10-14T02:54:16.134Z,73.64
2022-10-14T02:56:48.863Z,73.38
2022-10-14T02:59:21.129Z,73.21
2022-10-14T03:01:53.702Z,73.87
2022-10-14T03:04:26.794Z,73.68
2022-10-14T03:06:58.782Z,73.40
2022-10-14T03:09:31.536Z,73.25
2022-10-14T03:12:04.292Z,73.32
2022-10-14T03:14:36.453Z,73.12
2022-10-14T03:17:09.540Z,72.74
2022-10-14T03:19:41.607Z,72.49
2022-10-14T03:22:14.324Z,73.02
2022-10-14T03:24:47.065Z,73.38
2022-10-14T03:27:40.582Z,73.50
2022-10-14T03:30:16.121Z,73.24
2022-10-14T03:33:00.618Z,73.39
2022-10-14T03:35:51.859Z,73.65
2022-10-14T03:38:28.195Z,73.69
2022-10-14T03:41:02.708Z,74.04
2022-10-14T03:43:34.653Z,74.24
2022-10-14T03:46:07.809Z,74.51
2022-10-14T03:48:40.065Z,75.00
2022-10-14T03:51:13.305Z,75.50
2022-10-14T03:53:47.012Z,75.26
2022-10-14T03:56:20.968Z,74.92
2022-10-14T03:58:54.059Z,75.05
2022-10-14T04:01:27.146Z,74.73
2022-10-14T04:04:13.769Z,74.81
2022-10-14T04:06:45.978Z,74.91
2022-10-14T04:09:18.931Z,74.88
2022-10-14T04:11:51.070Z,74.98
2022-10-14T04:14:58.369Z,74.84
2022-10-14T04:17:30.978Z,74.97
2022-10-14T04:20:07.822Z,74.62
2022-10-14T04:22:40.731Z,74.41
2022-10-14T04:25:13.877Z,74.42
2022-10-14T04:27:48.758Z,74.27
2022-10-14T04:30:21.832Z,74.50
2022-10-14T04:32:57.291Z,74.70
2022-10-14T04:35:29.455Z,75.13
2022-10-14T04:38:01.727Z,75.42
2022-10-14T04:40:34.879Z,75.50
2022-10-14T04:43:07.354Z,75.26
2022-10-14T04:45:42.767Z,75.18
2022-10-14T04:48:15.193Z,74.55
2022-10-14T04:50:51.417Z,74.41
2022-10-14T04:53:39.875Z,74.62
2022-10-14T04:56:19.984Z,74.80
2022-10-14T04:59:03.702Z,74.76
2022-10-14T05:01:52.305Z,74.47
2022-10-14T05:04:24.541Z,74.39
2022-10-14T05:06:57.183Z,74.38
2022-10-14T05:09:29.767Z,74.31
2022-10-14T05:12:21.666Z,74.55
2022-10-14T05:15:10.566Z,74.60
2022-10-14T05:17:47.495Z,74.88
2022-10-14T05:20:26.916Z,75.21
2022-10-14T05:23:22.198Z,75.26
2022-10-14T05:26:04.603Z,75.36
2022-10-14T05:28:39.400Z,75.35
2022-10-14T05:31:12.347Z,75.53
2022-10-14T05:33:50.941Z,75.28
2022-10-14T05:36:23.362Z,75.39
2022-10-14T05:38:58.729Z,75.45
2022-10-14T05:41:32.828Z,75.39
2022-10-14T05:44:04.864Z,74.95
2022-10-14T05:46:39.173Z,74.89
2022-10-14T05:49:13.344Z,74.77
2022-10-14T05:51:46.058Z,74.67
2022-10-14T05:54:22.877Z,74.61
2022-10-14T05:56:57.729Z,74.97
2022-10-14T05:59:30.449Z,75.15
2022-10-14T06:02:02.989Z,75.33
2022-10-14T06:04:35.095Z,75.38
2022-10-14T06:07:10.316Z,75.46
2022-10-14T06:09:47.783Z,75.54
2022-10-14T06:12:20.424Z,75.46
2022-10-14T06:14:52.552Z,75.56
2022-10-14T06:17:24.684Z,75.70
2022-10-14T06:19:58.409Z,75.90
2022-10-14T06:22:31.010Z,75.96
2022-10-14T06:25:04.435Z,75.91
2022-10-14T06:27:36.706Z,75.86
2022-10-14T06:30:11.131Z,75.77
2022-10-14T06:32:43.226Z,75.94
2022-10-14T06:35:15.297Z,75.89
2022-10-14T06:37:48.849Z,76.01
2022-10-14T06:40:21.378Z,76.34
2022-10-14T06:42:53.743Z,76.46
2022-10-14T06:45:25.843Z,76.64
2022-10-14T06:47:57.936Z,77.09
2022-10-14T06:50:29.939Z,76.82
2022-10-14T06:53:01.909Z,77.52
2022-10-14T06:55:34.543Z,77.89
2022-10-14T06:58:06.589Z,78.49
2022-10-14T07:00:39.010Z,78.04
2022-10-14T07:03:10.974Z,77.93
2022-10-14T07:05:43.005Z,78.02
2022-10-14T07:08:15.695Z,77.69
2022-10-14T07:10:49.365Z,77.70
2022-10-14T07:13:21.534Z,77.66
2022-10-14T07:15:54.476Z,77.74
2022-10-14T07:18:26.607Z,77.40
2022-10-14T07:21:02.401Z,77.62
2022-10-14T07:23:35.203Z,77.68
2022-10-14T07:26:07.707Z,77.75
2022-10-14T07:28:39.860Z,77.52
2022-10-14T07:31:13.332Z,77.23
2022-10-14T07:33:45.533Z,77.55
2022-10-14T07:36:21.642Z,77.89
2022-10-14T07:38:55.741Z,77.83
2022-10-14T07:41:28.529Z,77.70
2022-10-14T07:44:05.992Z,78.10
2022-10-14T07:46:39.956Z,77.63
2022-10-14T07:49:15.209Z,77.78
2022-10-14T07:51:48.075Z,77.64
2022-10-14T07:54:22.448Z,77.52
2022-10-14T07:56:55.044Z,77.34
2022-10-14T07:59:27.285Z,76.65
2022-10-14T08:01:59.655Z,76.27
2022-10-14T08:04:31.779Z,76.59
2022-10-14T08:07:04.804Z,76.24
2022-10-14T08:09:38.588Z,76.66
2022-10-14T08:12:11.077Z,76.61
2022-10-14T08:14:43.048Z,76.02
2022-10-14T08:17:15.257Z,75.56
2022-10-14T08:19:47.282Z,75.42
2022-10-14T08:22:21.014Z,75.80
2022-10-14T08:24:53.313Z,75.31
2022-10-14T08:27:26.851Z,75.33
2022-10-14T08:29:58.872Z,75.53
2022-10-14T08:32:31.259Z,75.12
2022-10-14T08:35:03.218Z,75.00
2022-10-14T08:37:36.451Z,74.47
2022-10-14T08:40:14.038Z,74.48
2022-10-14T08:42:55.864Z,74.21
2022-10-14T08:45:33.917Z,73.77
2022-10-14T08:48:11.954Z,73.47
2022-10-14T08:50:48.948Z,73.23
2022-10-14T08:53:23.863Z,73.23
2022-10-14T08:56:00.273Z,72.88
2022-10-14T08:58:38.625Z,72.67
2022-10-14T09:01:20.310Z,73.01
2022-10-14T09:03:55.152Z,72.71
2022-10-14T09:06:29.558Z,72.47
2022-10-14T09:09:07.613Z,72.32
2022-10-14T09:11:42.730Z,71.94
2022-10-14T09:14:20.831Z,71.83
2022-10-14T09:16:57.940Z,71.38
2022-10-14T09:19:34.692Z,71.08
2022-10-14T09:22:14.865Z,70.49
2022-10-14T09:24:48.563Z,71.13
2022-10-14T09:27:22.800Z,71.09
2022-10-14T09:30:00.423Z,71.25
2022-10-14T09:32:36.909Z,71.42
2022-10-14T09:35:18.195Z,71.35
2022-10-14T09:37:50.397Z,71.32
2022-10-14T09:40:29.995Z,70.95
2022-10-14T09:43:11.547Z,70.36
2022-10-14T09:45:53.600Z,70.06
2022-10-14T09:48:33.807Z,70.12
2022-10-14T09:51:10.212Z,70.09
2022-10-14T09:53:47.173Z,70.29
2022-10-14T09:56:31.471Z,69.95
2022-10-14T09:59:05.541Z,70.35
2022-10-14T10:01:42.581Z,70.56
2022-10-14T10:04:36.087Z,70.41
2022-10-14T10:07:27.025Z,70.80
2022-10-14T10:10:01.845Z,70.84
2022-10-14T10:12:35.665Z,70.80
2022-10-14T10:15:19.106Z,71.12
2022-10-14T10:17:52.422Z,70.48
2022-10-14T10:20:33.372Z,70.52
2022-10-14T10:23:26.365Z,70.14
2022-10-14T10:26:17.626Z,70.44
2022-10-14T10:28:50.709Z,70.58
2022-10-14T10:31:47.201Z,70.13
2022-10-14T10:34:44.713Z,70.07
2022-10-14T10:37:27.250Z,69.86
2022-10-14T10:40:22.743Z,69.20
2022-10-14T10:43:09.379Z,69.48
2022-10-14T10:45:55.041Z,69.69
2022-10-14T10:48:34.161Z,69.33
2022-10-14T10:51:10.887Z,68.78
2022-10-14T10:53:54.154Z,69.03
2022-10-14T10:56:38.914Z,69.08
2022-10-14T10:59:50.028Z,69.52
2022-10-14T11:02:48.016Z,68.92
2022-10-14T11:05:30.855Z,68.56
2022-10-14T11:08:35.673Z,68.38
2022-10-14T11:11:39.769Z,68.45
2022-10-14T11:14:24.810Z,68.33
2022-10-14T11:17:06.378Z,68.34
2022-10-14T11:19:46.189Z,68.31
2022-10-14T11:22:29.122Z,68.67
2022-10-14T11:25:15.110Z,69.02
2022-10-14T11:27:54.413Z,69.33
2022-10-14T11:30:43.383Z,69.38
2022-10-14T11:33:29.622Z,69.33
2022-10-14T11:36:15.629Z,69.12
2022-10-14T11:39:04.678Z,68.96
2022-10-14T11:41:52.509Z,68.57
2022-10-14T11:47:11.804Z,68.28
2022-10-14T11:49:53.141Z,68.43
2022-10-14T11:52:29.669Z,68.42
2022-10-14T11:55:13.667Z,68.70
2022-10-14T11:57:53.030Z,68.76
2022-10-14T12:00:29.616Z,68.08
2022-10-14T12:03:11.528Z,68.19
2022-10-14T12:05:50.665Z,68.62
2022-10-14T12:08:30.461Z,68.65
2022-10-14T12:11:09.420Z,68.10
2022-10-14T12:13:47.515Z,68.56
2022-10-14T12:16:22.424Z,68.69
2022-10-14T12:18:58.068Z,68.61
2022-10-14T12:21:39.780Z,68.86
2022-10-14T12:24:15.757Z,68.94
2022-10-14T12:26:53.882Z,69.02
2022-10-14T12:29:30.312Z,68.92
2022-10-14T12:32:20.841Z,69.06
2022-10-14T12:34:54.944Z,68.90
2022-10-14T12:37:54.463Z,69.05
2022-10-14T12:40:33.051Z,68.95
2022-10-14T12:43:18.433Z,68.98
2022-10-14T12:46:00.761Z,68.65
2022-10-14T12:48:36.328Z,68.79
2022-10-14T12:51:16.228Z,68.98
2022-10-14T12:53:58.443Z,68.80
2022-10-14T12:56:39.673Z,68.27
2022-10-14T12:59:25.589Z,68.05
2022-10-14T13:02:01.288Z,68.21
2022-10-14T13:04:35.446Z,68.11
2022-10-14T13:07:41.573Z,68.52
2022-10-14T13:10:47.350Z,68.86
2022-10-14T13:13:52.595Z,68.58
2022-10-14T13:16:57.310Z,68.79
2022-10-14T13:19:46.677Z,68.22
2022-10-14T13:22:42.583Z,68.23
2022-10-14T13:25:17.653Z,68.58
2022-10-14T13:27:56.415Z,68.66
2022-10-14T13:30:38.232Z,68.92
2022-10-14T13:33:19.608Z,68.72
2022-10-14T13:36:00.113Z,68.93
2022-10-14T13:38:34.726Z,69.13
2022-10-14T13:41:15.591Z,69.02
2022-10-14T13:43:47.873Z,68.88
2022-10-14T13:46:25.892Z,68.82
2022-10-14T13:49:01.163Z,68.55
2022-10-14T13:51:49.046Z,68.98
2022-10-14T13:54:23.639Z,68.88
2022-10-14T14:02:54.565Z,69.06
2022-10-14T14:05:33.523Z,68.87
2022-10-14T14:08:38.548Z,68.53
2022-10-14T14:11:16.053Z,68.15
2022-10-14T14:14:01.202Z,68.22
2022-10-14T14:16:38.017Z,68.14
2022-10-14T14:19:20.940Z,68.35
2022-10-14T14:22:06.025Z,68.31
2022-10-14T14:24:38.118Z,68.49
2022-10-14T14:27:14.948Z,68.82
2022-10-14T14:29:50.046Z,69.07
2022-10-14T14:32:25.820Z,68.81
2022-10-14T14:34:58.142Z,69.47
2022-10-14T14:40:27.098Z,69.30
2022-10-14T14:43:02.265Z,69.10
2022-10-14T14:45:38.563Z,69.66
2022-10-14T14:48:14.573Z,69.48
2022-10-14T14:50:48.921Z,69.54
2022-10-14T14:53:24.005Z,69.66
2022-10-14T14:56:10.436Z,69.96
2022-10-14T14:58:52.419Z,70.08
2022-10-14T15:01:26.776Z,70.02
2022-10-14T15:04:13.072Z,69.74
2022-10-14T15:06:53.450Z,70.11
2022-10-14T15:09:31.974Z,70.32
2022-10-14T15:12:05.548Z,70.50
2022-10-14T15:14:46.003Z,70.74
2022-10-14T15:17:34.206Z,70.90
2022-10-14T15:20:28.795Z,70.88
2022-10-14T15:23:00.832Z,70.64
2022-10-14T15:25:34.403Z,71.18
2022-10-14T15:28:06.505Z,70.93
2022-10-14T15:30:55.701Z,71.09
2022-10-14T15:33:28.330Z,70.79
2022-10-14T15:36:03.011Z,70.81
2022-10-14T15:38:35.945Z,71.16
2022-10-14T15:41:08.190Z,71.26
2022-10-14T15:43:40.531Z,71.21
2022-10-14T15:46:32.647Z,71.33
2022-10-14T15:49:12.957Z,71.30
2022-10-14T15:51:45.300Z,71.27
2022-10-14T15:54:19.142Z,71.28
2022-10-14T15:56:51.907Z,71.57
2022-10-14T15:59:24.219Z,71.41
2022-10-14T16:01:56.454Z,71.46
2022-10-14T16:04:29.506Z,71.57
2022-10-14T16:07:01.711Z,71.94
2022-10-14T16:09:33.618Z,72.13
2022-10-14T16:12:09.652Z,72.31
2022-10-14T16:14:40.141Z,72.54
2022-10-14T16:17:12.942Z,72.92
2022-10-14T16:19:46.543Z,72.62
2022-10-14T16:22:19.358Z,72.88
2022-10-14T16:24:51.655Z,73.01
2022-10-14T16:27:24.743Z,73.41
2022-10-14T16:29:56.905Z,73.71
2022-10-14T16:32:31.175Z,73.76
2022-10-14T16:35:03.654Z,73.78
2022-10-14T16:37:38.295Z,73.62
2022-10-14T16:40:13.733Z,73.91
2022-10-14T16:42:46.064Z,74.07
2022-10-14T16:45:18.194Z,74.56
2022-10-14T16:47:50.112Z,74.51
2022-10-14T16:50:22.658Z,74.65
2022-10-14T16:53:12.242Z,74.77
2022-10-14T16:55:44.342Z,74.77
2022-10-14T16:58:16.704Z,74.68
2022-10-14T17:00:48.729Z,74.71
2022-10-14T17:03:20.669Z,74.53
2022-10-14T17:06:00.699Z,74.55
2022-10-14T17:08:33.097Z,75.03
2022-10-14T17:11:04.984Z,74.88
2022-10-14T17:13:37.141Z,74.86
2022-10-14T17:16:09.325Z,75.13
2022-10-14T17:18:41.684Z,74.72
2022-10-14T17:21:16.844Z,74.70
2022-10-14T17:23:50.409Z,74.38
2022-10-14T17:26:22.669Z,74.49
2022-10-14T17:28:54.609Z,74.45
2022-10-14T17:31:27.827Z,74.43
2022-10-14T17:34:01.357Z,74.29
2022-10-14T17:36:33.469Z,74.27
2022-10-14T17:39:05.983Z,74.19
2022-10-14T17:41:37.992Z,74.11
2022-10-14T17:44:11.023Z,74.11
2022-10-14T17:46:43.242Z,73.91
2022-10-14T17:49:15.161Z,73.72
2022-10-14T17:51:47.325Z,73.67
2022-10-14T17:54:19.961Z,73.53
2022-10-14T17:56:51.936Z,73.31
2022-10-14T17:59:24.674Z,73.82
2022-10-14T18:02:02.712Z,73.78
2022-10-14T18:04:35.489Z,73.63
2022-10-14T18:07:07.379Z,73.80
2022-10-14T18:09:39.529Z,74.27
2022-10-14T18:12:11.503Z,74.66
2022-10-14T18:14:44.142Z,74.83
2022-10-14T18:17:16.439Z,75.08
2022-10-14T18:19:52.191Z,75.32
2022-10-14T18:22:24.671Z,75.24
2022-10-14T18:24:56.999Z,75.21
2022-10-14T18:27:28.869Z,74.99
2022-10-14T18:30:01.017Z,75.05
2022-10-14T18:32:33.019Z,75.19
2022-10-14T18:35:06.155Z,75.32
2022-10-14T18:37:39.120Z,75.31
2022-10-14T18:40:14.701Z,75.47
2022-10-14T18:42:46.567Z,74.94
2022-10-14T18:45:18.880Z,74.96
2022-10-14T18:47:52.188Z,74.93
2022-10-14T18:50:24.154Z,74.95
2022-10-14T18:52:57.172Z,75.08
2022-10-14T18:55:29.275Z,75.14
2022-10-14T18:58:01.183Z,74.95
2022-10-14T19:00:33.698Z,74.87
2022-10-14T19:03:05.815Z,74.87
2022-10-14T19:05:39.027Z,74.75
2022-10-14T19:08:11.427Z,74.61
2022-10-14T19:10:43.989Z,74.71
2022-10-14T19:13:15.942Z,74.96
2022-10-14T19:15:53.923Z,74.43
2022-10-14T19:18:25.818Z,74.19
2022-10-14T19:21:03.511Z,74.10
2022-10-14T19:23:36.677Z,73.67
2022-10-14T19:26:31.334Z,73.41
2022-10-14T19:29:07.783Z,73.80
2022-10-14T19:31:43.791Z,74.64
2022-10-14T19:34:17.403Z,74.09
2022-10-14T19:36:49.678Z,73.73
2022-10-14T19:39:21.652Z,73.45
2022-10-14T19:41:53.713Z,73.87
2022-10-14T19:44:25.900Z,74.03
2022-10-14T19:46:58.665Z,73.59
2022-10-14T19:49:30.530Z,73.96
2022-10-14T19:52:02.557Z,73.91
2022-10-14T19:54:34.740Z,73.81
2022-10-14T19:57:08.247Z,74.40
2022-10-14T19:59:40.262Z,74.87
2022-10-14T20:02:12.858Z,74.63
2022-10-14T20:04:44.723Z,75.21
2022-10-14T20:07:17.089Z,75.43
2022-10-14T20:09:49.293Z,75.00
2022-10-14T20:12:22.170Z,73.79
2022-10-14T20:14:55.072Z,74.20
2022-10-14T20:17:27.701Z,74.12
2022-10-14T20:19:59.925Z,73.48
2022-10-14T20:22:32.683Z,72.90
2022-10-14T20:25:05.142Z,73.27
2022-10-14T20:27:37.383Z,73.63
2022-10-14T20:30:13.086Z,73.53
2022-10-14T20:32:45.228Z,72.91
2022-10-14T20:35:17.973Z,72.49
2022-10-14T20:37:50.496Z,72.19
2022-10-14T20:40:22.731Z,72.77
2022-10-14T20:42:54.803Z,72.11
2022-10-14T20:45:26.710Z,73.69
2022-10-14T20:47:59.040Z,74.36
2022-10-14T20:50:31.071Z,74.43
2022-10-14T20:53:05.234Z,73.83
2022-10-14T20:55:37.415Z,73.17
2022-10-14T20:58:10.395Z,72.62
2022-10-14T21:00:42.271Z,71.81
2022-10-14T21:03:14.381Z,70.79
2022-10-14T21:05:46.251Z,70.73
2022-10-14T21:08:18.406Z,70.68
2022-10-14T21:10:50.399Z,71.17
2022-10-14T21:13:23.154Z,70.94
2022-10-14T21:15:55.043Z,70.94
2022-10-14T21:18:29.937Z,70.94
2022-10-14T21:21:06.805Z,71.10
2022-10-14T21:23:39.270Z,71.53
2022-10-14T21:26:11.907Z,73.09
2022-10-14T21:28:44.553Z,73.16
2022-10-14T21:31:19.344Z,74.62
2022-10-14T21:34:02.546Z,73.52
2022-10-14T21:36:38.536Z,74.12
2022-10-14T21:39:12.764Z,74.14
2022-10-14T21:41:48.919Z,73.86
2022-10-14T21:44:23.337Z,73.62
2022-10-14T21:46:56.811Z,73.96
2022-10-14T21:49:55.674Z,73.83
2022-10-14T21:52:29.008Z,74.02
2022-10-14T21:55:00.905Z,74.47
2022-10-14T21:57:33.842Z,74.64
2022-10-14T22:00:10.822Z,75.60
2022-10-14T22:02:43.427Z,75.76
2022-10-14T22:05:15.888Z,75.31
2022-10-14T22:07:48.860Z,74.79
2022-10-14T22:10:41.027Z,74.35
2022-10-14T22:13:15.255Z,74.02
2022-10-14T22:15:47.392Z,73.59
2022-10-14T22:18:19.434Z,73.43
2022-10-14T22:20:59.901Z,73.52
2022-10-14T22:23:31.890Z,73.42
2022-10-14T22:26:05.986Z,73.00
2022-10-14T22:28:39.134Z,72.60
2022-10-14T22:31:13.310Z,73.00
2022-10-14T22:33:46.060Z,72.94
2022-10-14T22:36:23.550Z,73.80
2022-10-14T22:38:57.442Z,73.56
2022-10-14T22:41:34.803Z,72.44
2022-10-14T22:44:08.471Z,73.11
2022-10-14T22:46:43.517Z,72.72
2022-10-14T22:49:15.809Z,73.38
2022-10-14T22:51:47.800Z,72.30
2022-10-14T22:54:21.041Z,71.96
2022-10-14T22:56:54.788Z,71.99
2022-10-14T22:59:27.633Z,72.30
2022-10-14T23:02:01.170Z,72.00
2022-10-14T23:04:33.789Z,72.26
2022-10-14T23:07:07.696Z,72.81
2022-10-14T23:09:43.663Z,72.13
2022-10-14T23:12:16.854Z,71.68
2022-10-14T23:14:49.130Z,71.52
2022-10-14T23:17:22.906Z,72.06
2022-10-14T23:19:54.868Z,73.04
2022-10-14T23:22:27.090Z,72.96
2022-10-14T23:24:59.053Z,72.31
2022-10-14T23:27:32.937Z,71.77
2022-10-14T23:30:10.827Z,71.31
2022-10-14T23:32:43.703Z,70.59
2022-10-14T23:35:15.775Z,70.68
2022-10-14T23:37:48.890Z,71.37
2022-10-14T23:40:21.285Z,72.64
2022-10-14T23:42:53.559Z,72.83
2022-10-14T23:45:25.425Z,72.95
2022-10-14T23:48:00.012Z,72.26
2022-10-14T23:50:31.900Z,71.84
2022-10-14T23:53:03.778Z,71.84
2022-10-14T23:55:35.683Z,71.37
2022-10-14T23:58:07.543Z,71.31
